Time;durP1;ratioP1;P1;durP2;ratioP2;P2;SDS_P1;SDS_P2;PMS_P1;PMS_P2;Temp;Humidity;BMP_temperature;BMP_pressure;BME280_temperature;BME280_humidity;BME280_pressure;Samples;Min_cycle;Max_cycle;Signal;HPM_P1;HPM_P2
2021/11/28 00:02:20;;;;;;;49.25;23.17;;;;;;;3.90;90.00;99478.59;5053330;28;20021;-70
2021/11/28 00:04:48;;;;;;;48.28;24.20;;;;;;;3.91;89.25;99485.28;5035443;28;20072;-70
2021/11/28 00:10:12;;;;;;;47.90;22.52;;;;;;;3.92;89.40;99500.47;5053641;28;20044;-70
2021/11/28 00:12:44;;;;;;;44.83;23.08;;;;;;;4.07;88.82;99498.69;5035495;28;20071;-70
2021/11/28 00:15:16;;;;;;;45.00;23.02;;;;;;;4.01;88.67;99499.41;5053855;28;20055;-70
2021/11/28 00:17:42;;;;;;;50.75;24.08;;;;;;;4.13;88.06;99494.66;5035561;28;20399;-70
2021/11/28 00:20:11;;;;;;;44.33;22.77;;;;;;;4.12;88.04;99497.41;5035417;28;20025;-70
2021/11/28 00:22:39;;;;;;;45.03;24.08;;;;;;;4.03;88.25;99500.03;5038043;28;20025;-71
2021/11/28 00:25:07;;;;;;;44.08;22.90;;;;;;;4.03;87.41;99496.69;5039073;28;20032;-71
2021/11/28 00:27:33;;;;;;;43.92;22.23;;;;;;;4.01;87.55;99499.41;5056849;28;20479;-71
2021/11/28 00:29:58;;;;;;;41.88;22.55;;;;;;;3.95;88.17;99507.00;5057139;28;20025;-71
2021/11/28 00:32:24;;;;;;;46.95;23.02;;;;;;;4.10;88.71;99507.78;5057120;28;20087;-71
2021/11/28 00:34:50;;;;;;;45.08;23.15;;;;;;;4.01;89.12;99496.84;5057058;28;20017;-71
2021/11/28 00:37:15;;;;;;;48.95;24.60;;;;;;;4.04;88.66;99511.03;5039140;28;20013;-71
2021/11/28 00:39:42;;;;;;;50.53;24.08;;;;;;;4.07;88.73;99516.59;5057004;28;20025;-71
2021/11/28 00:42:08;;;;;;;47.95;23.70;;;;;;;4.17;89.39;99513.78;5057266;28;20486;-71
2021/11/28 00:44:33;;;;;;;48.72;24.30;;;;;;;4.12;88.94;99515.28;5038948;28;20029;-71
2021/11/28 00:46:59;;;;;;;47.90;24.25;;;;;;;4.12;89.08;99520.41;5039016;28;20025;-71
2021/11/28 00:49:26;;;;;;;54.95;30.38;;;;;;;3.92;88.93;99490.22;5039119;28;20055;-71
2021/11/28 00:51:57;;;;;;;44.38;23.23;;;;;;;4.15;88.47;99523.41;5039089;28;20016;-71
2021/11/28 00:54:28;;;;;;;53.20;24.40;;;;;;;4.13;89.06;99527.88;5056792;28;20021;-70
2021/11/28 00:56:54;;;;;;;47.60;24.15;;;;;;;4.13;89.61;99535.56;5056735;28;20104;-70
2021/11/28 00:59:20;;;;;;;49.33;24.45;;;;;;;4.00;89.12;99528.50;5038768;28;20016;-70
2021/11/28 01:01:46;;;;;;;51.50;24.30;;;;;;;4.12;90.11;99528.06;5056711;28;20550;-70
2021/11/28 01:04:11;;;;;;;47.25;23.25;;;;;;;4.09;89.25;99538.66;5056820;28;20119;-70
2021/11/28 01:06:37;;;;;;;48.03;23.33;;;;;;;4.10;90.27;99543.56;5038764;28;20075;-70
2021/11/28 01:09:04;;;;;;;51.63;24.27;;;;;;;4.09;89.76;99548.88;5056537;28;20082;-70
2021/11/28 01:11:30;;;;;;;45.22;23.17;;;;;;;4.13;89.72;99556.00;5057151;28;20419;-72
2021/11/28 01:13:55;;;;;;;47.53;23.00;;;;;;;4.19;89.48;99554.53;5056481;28;20025;-71
2021/11/28 01:16:21;;;;;;;47.38;22.80;;;;;;;4.28;89.08;99550.91;5055791;28;20060;-71
2021/11/28 01:18:47;;;;;;;47.00;24.48;;;;;;;4.03;88.67;99558.81;5055118;28;20020;-71
2021/11/28 01:21:13;;;;;;;44.90;24.00;;;;;;;4.03;89.57;99556.28;5054976;28;20062;-71
2021/11/28 01:23:38;;;;;;;48.47;23.90;;;;;;;4.03;89.01;99552.94;5037049;28;20123;-71
2021/11/28 01:26:04;;;;;;;46.78;23.60;;;;;;;4.03;89.10;99540.16;5054939;28;20029;-70
2021/11/28 01:28:30;;;;;;;44.55;22.83;;;;;;;4.07;89.34;99564.38;5037113;28;20032;-70
2021/11/28 01:30:56;;;;;;;43.45;23.05;;;;;;;3.94;89.29;99565.00;5054755;28;20476;-71
2021/11/28 01:33:21;;;;;;;44.53;22.85;;;;;;;3.97;89.03;99562.09;5054560;28;20131;-70
2021/11/28 01:35:47;;;;;;;45.17;22.67;;;;;;;3.78;89.53;99537.00;5054851;28;20108;-70
2021/11/28 01:38:14;;;;;;;41.60;22.40;;;;;;;4.00;89.19;99576.25;5054799;28;20020;-71
2021/11/28 01:40:39;;;;;;;43.60;22.98;;;;;;;4.00;89.18;99581.38;5054764;28;20025;-71
2021/11/28 01:43:12;;;;;;;45.33;22.58;;;;;;;4.11;89.96;99572.50;5054622;28;20020;-70
2021/11/28 01:45:38;;;;;;;48.03;23.75;;;;;;;4.08;88.42;99578.75;5036875;28;20029;-71
2021/11/28 01:48:07;;;;;;;44.08;22.75;;;;;;;4.08;88.73;99581.28;5054626;28;20384;-71
2021/11/28 01:50:35;;;;;;;43.83;23.10;;;;;;;3.98;89.75;99584.13;5054563;28;20067;-70
2021/11/28 01:53:04;;;;;;;47.65;23.83;;;;;;;4.01;89.38;99576.09;5054536;28;20107;-71
2021/11/28 01:55:31;;;;;;;45.60;23.48;;;;;;;4.07;89.60;99584.84;5054420;28;20104;-71
2021/11/28 01:57:58;;;;;;;46.95;23.77;;;;;;;4.17;89.63;99590.50;5036546;28;20031;-70
2021/11/28 02:00:27;;;;;;;45.15;22.77;;;;;;;4.08;89.62;99596.63;5054429;28;20070;-71
2021/11/28 02:02:53;;;;;;;48.03;23.08;;;;;;;4.10;89.75;99604.94;5054642;28;20048;-71
2021/11/28 02:05:21;;;;;;;50.55;23.90;;;;;;;4.00;89.34;99589.84;5036422;28;20025;-70
2021/11/28 02:07:47;;;;;;;46.50;23.17;;;;;;;4.04;89.75;99598.75;5054352;28;20025;-70
2021/11/28 02:10:13;;;;;;;47.75;24.13;;;;;;;3.96;89.45;99598.81;5054313;28;20024;-70
2021/11/28 02:12:38;;;;;;;44.53;22.80;;;;;;;3.98;90.19;99602.00;5036376;28;20383;-70
2021/11/28 02:15:09;;;;;;;49.35;24.52;;;;;;;4.03;90.55;99615.06;5054202;28;20464;-70
2021/11/28 02:17:34;;;;;;;47.45;23.52;;;;;;;4.13;90.28;99609.69;5019621;28;1018597;-70
2021/11/28 02:20:00;;;;;;;48.97;24.27;;;;;;;4.18;89.65;99604.09;5055441;28;20037;-70
2021/11/28 02:22:25;;;;;;;49.22;23.27;;;;;;;3.90;88.78;99603.84;5037263;28;20032;-70
2021/11/28 02:24:51;;;;;;;45.90;23.10;;;;;;;3.97;89.45;99608.09;5037141;28;20116;-70
2021/11/28 02:27:16;;;;;;;45.83;22.92;;;;;;;3.82;89.70;99608.03;5054979;28;20046;-70
2021/11/28 02:29:43;;;;;;;45.25;23.63;;;;;;;3.92;90.59;99617.25;5037123;28;20082;-70
2021/11/28 02:32:10;;;;;;;54.97;24.42;;;;;;;3.98;90.34;99612.22;5054878;28;20104;-70
2021/11/28 02:34:36;;;;;;;46.58;23.98;;;;;;;4.07;89.84;99616.31;5036946;28;20021;-70
2021/11/28 02:37:03;;;;;;;48.00;23.90;;;;;;;3.96;90.06;99618.47;5054827;28;20071;-70
2021/11/28 02:39:28;;;;;;;45.55;23.70;;;;;;;3.89;90.59;99627.81;5055003;28;20025;-70
2021/11/28 02:41:54;;;;;;;49.35;24.67;;;;;;;3.96;90.41;99626.16;5036822;28;20028;-70
2021/11/28 02:44:20;;;;;;;49.50;24.33;;;;;;;3.60;90.27;99589.19;5053845;28;20036;-70
2021/11/28 02:46:45;;;;;;;49.45;24.20;;;;;;;3.93;90.50;99634.16;5054612;28;20025;-70
2021/11/28 02:49:11;;;;;;;49.13;24.30;;;;;;;3.98;90.63;99630.13;5036643;28;20499;-70
2021/11/28 02:51:38;;;;;;;48.28;23.73;;;;;;;3.98;90.81;99637.00;5055300;28;20029;-70
2021/11/28 02:54:05;;;;;;;56.10;24.48;;;;;;;4.07;90.24;99631.66;5054436;28;20020;-70
2021/11/28 02:56:32;;;;;;;48.22;24.48;;;;;;;4.09;90.56;99633.25;5036537;28;20017;-70
2021/11/28 02:58:57;;;;;;;46.33;23.90;;;;;;;4.11;89.93;99633.84;5054335;28;20025;-71
2021/11/28 03:01:23;;;;;;;48.17;23.33;;;;;;;4.10;90.29;99633.06;5054347;28;20040;-70
2021/11/28 03:03:53;;;;;;;53.53;24.17;;;;;;;4.10;90.07;99633.06;5036341;28;20025;-70
2021/11/28 03:06:19;;;;;;;46.60;23.30;;;;;;;4.09;89.90;99634.03;5054216;28;20115;-70
2021/11/28 03:08:45;;;;;;;45.67;23.30;;;;;;;4.09;90.04;99634.03;5054181;28;20079;-69
2021/11/28 03:11:13;;;;;;;48.00;22.83;;;;;;;4.07;90.24;99631.66;5054169;28;20029;-70
2021/11/28 03:13:45;;;;;;;47.17;23.50;;;;;;;4.11;90.59;99626.97;5036214;28;20064;-70
2021/11/28 03:16:17;;;;;;;46.50;23.75;;;;;;;4.13;89.62;99625.03;5036113;28;20385;-70
2021/11/28 03:18:43;;;;;;;45.65;23.40;;;;;;;4.17;90.46;99638.28;5036191;28;20480;-70
2021/11/28 03:21:19;;;;;;;44.20;23.35;;;;;;;4.13;89.82;99629.38;5036112;28;20025;-70
2021/11/28 03:23:46;;;;;;;47.30;23.17;;;;;;;4.16;90.33;99629.03;5035986;28;20075;-70
2021/11/28 03:26:22;;;;;;;44.67;22.60;;;;;;;3.97;90.07;99618.31;5036031;28;20123;-69
2021/11/28 03:28:52;;;;;;;47.92;23.17;;;;;;;4.11;89.94;99639.75;5036032;28;20364;-71
2021/11/28 03:31:18;;;;;;;53.28;25.17;;;;;;;4.10;90.27;99637.38;5053829;28;20020;-70
2021/11/28 03:33:43;;;;;;;53.58;24.73;;;;;;;4.02;89.73;99636.47;5035900;28;20033;-71
2021/11/28 03:36:10;;;;;;;45.28;24.17;;;;;;;3.95;89.96;99632.25;5053788;28;20024;-70
2021/11/28 03:38:37;;;;;;;51.45;23.83;;;;;;;3.89;90.35;99638.81;5054241;28;20104;-70
2021/11/28 03:41:03;;;;;;;45.50;23.23;;;;;;;3.84;90.50;99638.53;5053676;28;20028;-71
2021/11/28 03:43:28;;;;;;;47.45;23.80;;;;;;;3.77;89.58;99643.53;5036262;28;20025;-70
2021/11/28 03:45:54;;;;;;;47.00;23.80;;;;;;;3.63;89.70;99643.50;5053538;28;20035;-70
2021/11/28 03:48:19;;;;;;;43.95;23.33;;;;;;;3.51;90.01;99643.88;5054108;28;20025;-70
2021/11/28 03:50:44;;;;;;;46.40;23.00;;;;;;;3.60;90.71;99642.06;5036002;28;20029;-70
2021/11/28 03:53:11;;;;;;;47.30;22.98;;;;;;;3.71;90.73;99634.00;5053483;28;20021;-70
2021/11/28 03:55:37;;;;;;;43.42;21.83;;;;;;;3.82;90.41;99637.91;5053316;28;20024;-70
2021/11/28 03:58:04;;;;;;;46.75;23.30;;;;;;;3.80;90.03;99632.97;5053474;28;20012;-70
2021/11/28 04:00:29;;;;;;;46.78;22.90;;;;;;;3.80;90.23;99640.66;5053469;28;20040;-70
2021/11/28 04:02:55;;;;;;;46.33;23.10;;;;;;;3.74;90.43;99641.34;5053437;28;20029;-69
2021/11/28 04:05:20;;;;;;;42.97;22.48;;;;;;;3.70;90.41;99639.28;5035407;28;20017;-71
2021/11/28 04:07:45;;;;;;;47.33;22.75;;;;;;;3.71;90.67;99638.31;5053392;28;20029;-71
2021/11/28 04:10:11;;;;;;;47.13;22.92;;;;;;;3.71;90.60;99646.78;5053291;28;20544;-71
2021/11/28 04:12:36;;;;;;;44.97;22.38;;;;;;;3.76;90.55;99636.03;5053344;28;20475;-71
2021/11/28 04:15:02;;;;;;;46.50;23.50;;;;;;;3.77;90.85;99635.88;5035491;28;20471;-70
2021/11/28 04:17:28;;;;;;;45.53;22.88;;;;;;;3.85;90.82;99642.69;5053137;28;20044;-70
2021/11/28 04:19:55;;;;;;;48.75;23.55;;;;;;;3.86;90.71;99636.63;5053539;28;20028;-70
2021/11/28 04:22:20;;;;;;;46.17;22.90;;;;;;;3.87;90.14;99640.75;5053776;28;20036;-70
2021/11/28 04:24:47;;;;;;;47.60;23.45;;;;;;;3.88;90.44;99636.44;5035249;28;20387;-70
2021/11/28 04:27:12;;;;;;;45.63;22.27;;;;;;;3.80;90.46;99634.75;5035311;28;20029;-70
2021/11/28 04:29:38;;;;;;;48.22;23.50;;;;;;;3.69;89.82;99638.47;5053162;28;20102;-69
2021/11/28 04:32:03;;;;;;;46.88;22.88;;;;;;;3.59;90.77;99637.91;5053166;28;20032;-70
2021/11/28 04:34:29;;;;;;;45.10;21.90;;;;;;;3.55;90.17;99642.56;5035179;28;20120;-70
2021/11/28 04:36:54;;;;;;;44.83;22.33;;;;;;;3.42;89.59;99641.50;5053068;28;20024;-69
2021/11/28 04:39:19;;;;;;;45.22;21.95;;;;;;;3.28;90.27;99648.13;5053599;28;20023;-70
2021/11/28 04:41:45;;;;;;;48.17;23.08;;;;;;;3.14;90.20;99637.66;5053070;28;20029;-69
2021/11/28 04:44:10;;;;;;;61.65;28.13;;;;;;;2.91;90.95;99606.97;5052952;28;20112;-69
2021/11/28 04:46:37;;;;;;;54.80;26.48;;;;;;;3.14;90.87;99640.22;5035132;28;20112;-69
2021/11/28 04:49:03;;;;;;;51.17;24.73;;;;;;;3.17;91.12;99629.66;5052930;28;20028;-69
2021/11/28 04:51:29;;;;;;;49.88;24.27;;;;;;;3.11;90.44;99648.22;5052961;28;20475;-69
2021/11/28 04:53:54;;;;;;;47.00;23.10;;;;;;;3.05;90.19;99641.22;5052831;28;20515;-70
2021/11/28 04:56:20;;;;;;;45.75;22.77;;;;;;;3.08;91.22;99642.63;5052908;28;20029;-70
2021/11/28 04:58:45;;;;;;;43.33;21.65;;;;;;;3.05;90.28;99632.75;5035067;28;20024;-70
2021/11/28 05:01:11;;;;;;;46.88;20.85;;;;;;;2.96;90.25;99649.06;5052849;28;20029;-70
2021/11/28 05:03:36;;;;;;;39.70;20.08;;;;;;;2.89;89.69;99654.03;5052754;28;20163;-70
2021/11/28 05:06:02;;;;;;;43.92;20.92;;;;;;;2.82;90.18;99653.06;5052846;28;20049;-70
2021/11/28 05:08:27;;;;;;;46.13;20.67;;;;;;;2.86;90.25;99662.00;5037400;28;20032;-69
2021/11/28 05:10:52;;;;;;;38.78;19.45;;;;;;;2.86;89.89;99667.13;5038552;28;20035;-70
2021/11/28 05:13:18;;;;;;;37.83;19.33;;;;;;;2.87;89.91;99664.38;5056470;28;20025;-69
2021/11/28 05:15:43;;;;;;;43.22;19.92;;;;;;;2.81;90.09;99664.25;5038335;28;20090;-69
2021/11/28 05:18:08;;;;;;;37.78;19.75;;;;;;;2.89;90.08;99662.47;5056378;28;20049;-70
2021/11/28 05:20:33;;;;;;;41.80;20.45;;;;;;;2.85;90.18;99662.94;5056337;28;20036;-70
2021/11/28 05:22:59;;;;;;;40.80;19.90;;;;;;;2.79;90.33;99666.97;5056231;28;20051;-70
2021/11/28 05:25:24;;;;;;;41.63;20.35;;;;;;;2.82;90.50;99671.75;5038248;28;20384;-70
2021/11/28 05:27:50;;;;;;;42.03;19.70;;;;;;;2.79;90.23;99671.25;5038282;28;20024;-69
2021/11/28 05:30:16;;;;;;;36.78;18.27;;;;;;;2.72;89.51;99676.22;5038221;28;20417;-69
2021/11/28 05:32:41;;;;;;;36.08;18.02;;;;;;;2.70;90.42;99680.69;5056021;28;20059;-69
2021/11/28 05:35:07;;;;;;;40.75;18.85;;;;;;;2.64;89.88;99673.69;5055985;28;20465;-69
2021/11/28 05:37:33;;;;;;;42.00;19.42;;;;;;;2.60;90.45;99685.19;5056487;28;20036;-69
2021/11/28 05:40:00;;;;;;;38.55;19.40;;;;;;;2.64;90.33;99686.44;5055947;28;20082;-72
2021/11/28 05:42:25;;;;;;;39.05;19.38;;;;;;;2.60;90.18;99691.09;5037989;28;20111;-70
2021/11/28 05:44:50;;;;;;;38.13;18.83;;;;;;;2.43;89.61;99697.16;5037952;28;20116;-70
2021/11/28 05:47:16;;;;;;;43.17;19.83;;;;;;;2.39;90.33;99693.34;5037987;28;20510;-69
2021/11/28 05:49:41;;;;;;;40.50;20.05;;;;;;;2.42;90.71;99705.78;5056475;28;20029;-69
2021/11/28 05:52:07;;;;;;;35.13;18.50;;;;;;;2.36;90.16;99696.19;5037828;28;20056;-69
2021/11/28 05:54:33;;;;;;;41.63;19.42;;;;;;;2.36;90.51;99691.09;5055895;28;20025;-69
2021/11/28 05:56:58;;;;;;;38.55;19.17;;;;;;;2.32;89.86;99700.81;5055615;28;20051;-70
2021/11/28 05:59:23;;;;;;;41.28;19.33;;;;;;;2.30;89.70;99702.72;5055579;28;20106;-69
2021/11/28 06:01:49;;;;;;;38.95;18.95;;;;;;;2.20;89.72;99705.44;5037645;28;20028;-69
2021/11/28 06:04:14;;;;;;;40.20;19.00;;;;;;;2.14;90.02;99703.53;5055437;28;20043;-69
2021/11/28 06:06:39;;;;;;;36.03;18.70;;;;;;;2.09;90.30;99703.19;5055407;28;20024;-70
2021/11/28 06:09:05;;;;;;;39.70;18.27;;;;;;;2.09;90.38;99708.28;5055383;28;20025;-69
2021/11/28 06:11:30;;;;;;;39.00;18.55;;;;;;;2.04;90.38;99702.88;5055390;28;20360;-69
2021/11/28 06:13:56;;;;;;;40.20;18.92;;;;;;;2.03;90.36;99714.81;5055343;28;20471;-69
2021/11/28 06:16:22;;;;;;;41.40;19.45;;;;;;;1.99;91.08;99703.34;5055284;28;20052;-69
2021/11/28 06:18:47;;;;;;;40.28;19.15;;;;;;;2.06;91.03;99705.28;5054612;28;20425;-69
2021/11/28 06:21:13;;;;;;;39.67;18.08;;;;;;;2.10;90.49;99717.56;5055163;28;20108;-70
2021/11/28 06:23:38;;;;;;;36.70;18.25;;;;;;;1.92;90.33;99715.13;5055073;28;20357;-69
2021/11/28 06:26:05;;;;;;;37.90;19.17;;;;;;;1.94;91.00;99723.41;5037148;28;20472;-70
2021/11/28 06:28:31;;;;;;;34.67;17.58;;;;;;;1.88;90.06;99720.69;5037119;28;20021;-70
2021/11/28 06:30:56;;;;;;;37.70;18.40;;;;;;;1.93;90.42;99731.22;5054969;28;20044;-70
2021/11/28 06:33:22;;;;;;;35.47;17.85;;;;;;;1.90;90.02;99741.69;5037100;28;20025;-71
2021/11/28 06:35:47;;;;;;;41.95;16.92;;;;;;;1.80;90.32;99731.66;5054954;28;20031;-71
2021/11/28 06:38:12;;;;;;;36.25;17.60;;;;;;;1.84;90.05;99734.69;5037198;28;20029;-71
2021/11/28 06:40:38;;;;;;;35.35;17.20;;;;;;;1.79;89.75;99740.25;5054633;28;20029;-70
2021/11/28 06:43:03;;;;;;;31.02;16.00;;;;;;;1.74;89.84;99745.81;5054613;28;20032;-70
2021/11/28 06:45:29;;;;;;;32.70;16.10;;;;;;;1.67;89.56;99741.47;5036629;28;20021;-70
2021/11/28 06:47:54;;;;;;;33.90;16.33;;;;;;;1.57;90.17;99742.41;5054538;28;20510;-70
2021/11/28 06:50:19;;;;;;;32.20;15.95;;;;;;;1.47;90.62;99740.97;5054564;28;20060;-70
2021/11/28 06:52:45;;;;;;;31.55;15.60;;;;;;;1.45;90.37;99748.72;5054619;28;20028;-70
2021/11/28 06:55:11;;;;;;;30.67;15.75;;;;;;;1.46;91.26;99752.06;5054420;28;20529;-70
2021/11/28 06:57:36;;;;;;;33.47;17.13;;;;;;;1.58;90.62;99750.84;5054490;28;20120;-70
2021/11/28 07:00:04;;;;;;;34.83;16.83;;;;;;;1.45;90.76;99722.47;5054428;28;20056;-70
2021/11/28 07:02:30;;;;;;;33.22;15.80;;;;;;;1.53;90.45;99755.63;5054241;28;20021;-71
2021/11/28 07:04:57;;;;;;;31.27;15.95;;;;;;;1.52;90.03;99756.56;5054681;28;20033;-70
2021/11/28 07:07:22;;;;;;;37.50;16.50;;;;;;;1.57;90.56;99762.00;5036486;28;20021;-71
2021/11/28 07:09:47;;;;;;;30.27;15.88;;;;;;;1.67;90.66;99772.88;5054216;28;20389;-70
2021/11/28 07:12:12;;;;;;;32.08;16.15;;;;;;;1.66;90.19;99768.69;5054725;28;20035;-69
2021/11/28 07:14:38;;;;;;;32.60;16.30;;;;;;;1.64;90.25;99767.25;5054946;28;20055;-69
2021/11/28 07:17:03;;;;;;;32.95;16.15;;;;;;;1.61;90.05;99745.44;5036109;28;20106;-70
2021/11/28 07:19:28;;;;;;;34.70;16.33;;;;;;;1.82;89.84;99783.25;5054061;28;20020;-70
2021/11/28 07:21:54;;;;;;;39.65;17.55;;;;;;;1.77;90.06;99783.72;5053915;28;20027;-71
2021/11/28 07:24:21;;;;;;;44.35;20.60;;;;;;;1.80;90.31;99791.03;5053916;28;20021;-70
2021/11/28 07:26:46;;;;;;;50.67;23.38;;;;;;;2.05;90.17;99788.59;5036058;28;20025;-69
2021/11/28 07:29:11;;;;;;;44.75;20.67;;;;;;;2.05;89.59;99791.13;5053843;28;20083;-69
2021/11/28 07:31:37;;;;;;;41.92;19.73;;;;;;;2.10;89.52;99790.66;5053453;28;20447;-69
2021/11/28 07:34:02;;;;;;;44.58;20.92;;;;;;;2.12;89.63;99781.09;5035698;28;20021;-69
2021/11/28 07:36:27;;;;;;;40.55;19.95;;;;;;;2.17;89.32;99794.97;5035724;28;20083;-69
2021/11/28 07:38:52;;;;;;;44.88;20.45;;;;;;;2.23;89.42;99794.34;5035797;28;20021;-69
2021/11/28 07:41:18;;;;;;;37.75;18.10;;;;;;;2.26;89.28;99796.56;5053553;28;20108;-70
2021/11/28 07:43:43;;;;;;;45.45;20.70;;;;;;;2.29;89.50;99795.47;5053456;28;20494;-70
2021/11/28 07:46:08;;;;;;;42.92;21.55;;;;;;;2.37;89.52;99802.34;5035587;28;20021;-69
2021/11/28 07:48:34;;;;;;;46.88;22.75;;;;;;;2.41;89.84;99801.84;5053465;28;20107;-70
2021/11/28 07:50:59;;;;;;;46.10;22.10;;;;;;;2.53;89.57;99811.75;5053997;28;20025;-69
2021/11/28 07:53:25;;;;;;;46.30;21.30;;;;;;;2.65;89.59;99816.41;5053378;28;20036;-70
2021/11/28 07:55:51;;;;;;;42.75;21.42;;;;;;;2.70;88.88;99816.72;5053414;28;20039;-70
2021/11/28 07:58:16;;;;;;;43.60;20.52;;;;;;;2.72;88.23;99819.09;5053995;28;20380;-69
2021/11/28 08:00:42;;;;;;;42.92;20.88;;;;;;;2.86;88.58;99828.66;5036057;28;20037;-69
2021/11/28 08:03:07;;;;;;;45.58;21.08;;;;;;;2.97;88.33;99832.66;5053347;28;20036;-69
2021/11/28 08:05:33;;;;;;;41.10;20.73;;;;;;;3.09;88.90;99828.03;5035372;28;20056;-69
2021/11/28 08:07:58;;;;;;;39.40;20.70;;;;;;;3.15;88.48;99827.38;5035419;28;20029;-69
2021/11/28 08:10:24;;;;;;;41.28;20.00;;;;;;;3.22;88.42;99837.72;5035437;28;20055;-70
2021/11/28 08:12:49;;;;;;;36.55;18.33;;;;;;;3.31;88.96;99839.31;5035590;28;20083;-71
2021/11/28 08:15:18;;;;;;;36.00;18.05;;;;;;;3.31;89.19;99847.78;5053172;28;20017;-69
2021/11/28 08:17:48;;;;;;;39.30;19.80;;;;;;;3.35;89.31;99850.81;5053013;28;20049;-69
2021/11/28 08:20:15;;;;;;;35.80;18.38;;;;;;;3.45;89.75;99853.97;5035142;28;20033;-69
2021/11/28 08:22:41;;;;;;;36.83;18.52;;;;;;;3.31;89.81;99839.31;5053110;28;20031;-70
2021/11/28 08:25:09;;;;;;;36.40;18.95;;;;;;;3.49;90.24;99862.13;5035171;28;20115;-70
2021/11/28 08:27:34;;;;;;;36.80;17.83;;;;;;;3.64;89.92;99864.78;5053023;28;20071;-69
2021/11/28 08:30:03;;;;;;;35.35;18.15;;;;;;;3.64;89.69;99859.69;5053502;28;20104;-70
2021/11/28 08:32:29;;;;;;;34.22;18.08;;;;;;;3.78;89.70;99859.00;5035148;28;20353;-70
2021/11/28 08:34:54;;;;;;;34.40;17.13;;;;;;;3.84;89.74;99861.69;5053025;28;20028;-70
2021/11/28 08:37:19;;;;;;;37.38;17.92;;;;;;;3.79;89.76;99856.25;5035188;28;20035;-70
2021/11/28 08:39:46;;;;;;;34.63;18.15;;;;;;;3.99;89.29;99866.09;5035378;28;20428;-71
2021/11/28 08:42:11;;;;;;;34.75;17.95;;;;;;;3.96;89.38;99864.69;5053584;28;20032;-71
2021/11/28 08:44:37;;;;;;;35.25;17.88;;;;;;;4.01;90.01;99862.41;5039000;28;20021;-71
2021/11/28 08:47:03;;;;;;;34.38;17.95;;;;;;;4.07;89.12;99873.75;5056868;28;20464;-71
2021/11/28 08:49:28;;;;;;;37.88;18.70;;;;;;;4.02;89.82;99869.13;5056773;28;20021;-71
2021/11/28 08:51:54;;;;;;;32.58;17.30;;;;;;;3.98;89.97;99869.63;5056798;28;20447;-70
2021/11/28 08:54:19;;;;;;;33.88;17.83;;;;;;;4.01;90.64;99871.84;5056650;28;20097;-71
2021/11/28 08:56:44;;;;;;;39.75;20.38;;;;;;;4.12;89.84;99876.59;5056700;28;20052;-71
2021/11/28 08:59:11;;;;;;;39.70;20.88;;;;;;;3.77;90.63;99836.94;5057124;28;20032;-71
2021/11/28 09:01:37;;;;;;;35.22;17.80;;;;;;;3.99;90.90;99876.34;5056476;28;20431;-71
2021/11/28 09:04:04;;;;;;;30.33;15.45;;;;;;;3.94;90.88;99879.41;5038497;28;20056;-70
2021/11/28 09:06:30;;;;;;;32.03;16.27;;;;;;;4.00;90.01;99871.06;5038574;28;20040;-70
2021/11/28 09:08:55;;;;;;;27.13;13.45;;;;;;;4.06;90.50;99879.84;5056503;28;20033;-72
2021/11/28 09:11:20;;;;;;;25.45;12.73;;;;;;;4.12;91.09;99880.94;5056502;28;20017;-70
2021/11/28 09:13:46;;;;;;;24.08;11.88;;;;;;;4.19;89.81;99884.41;5038534;28;20021;-71
2021/11/28 09:16:11;;;;;;;25.48;12.45;;;;;;;4.20;90.13;99893.66;5056228;28;20041;-71
2021/11/28 09:21:15;;;;;;;17.90;10.20;;;;;;;4.28;89.90;99898.72;5056354;28;20499;-69
2021/11/28 09:26:25;;;;;;;20.23;9.93;;;;;;;4.19;91.16;99897.19;5057136;28;20102;-71
2021/11/28 09:28:54;;;;;;;19.92;9.48;;;;;;;4.22;91.29;99899.41;5056538;28;20463;-71
2021/11/28 09:31:19;;;;;;;15.40;7.95;;;;;;;4.26;91.14;99905.81;5038174;28;20070;-71
2021/11/28 09:33:45;;;;;;;12.82;6.53;;;;;;;4.10;90.52;99875.97;5038039;28;20480;-70
2021/11/28 09:36:10;;;;;;;8.45;4.80;;;;;;;4.21;90.56;99903.72;5056084;28;20464;-70
2021/11/28 09:38:36;;;;;;;7.35;3.83;;;;;;;4.14;90.82;99907.09;5055779;28;20494;-71
2021/11/28 09:41:10;;;;;;;4.03;2.15;;;;;;;4.03;91.04;99905.72;5038334;28;20490;-71
2021/11/28 09:43:39;;;;;;;4.22;2.00;;;;;;;4.24;90.76;99908.50;5056361;28;20033;-71
2021/11/28 09:46:06;;;;;;;1.83;1.20;;;;;;;4.30;89.22;99923.19;5037856;28;20029;-71
2021/11/28 09:48:36;;;;;;;4.18;1.08;;;;;;;4.32;88.99;99912.81;5037744;28;20025;-70
2021/11/28 09:51:07;;;;;;;1.52;0.95;;;;;;;4.38;88.67;99913.91;5055681;28;20039;-73
2021/11/28 09:53:34;;;;;;;3.33;1.10;;;;;;;4.46;89.09;99912.09;5055370;28;20032;-70
2021/11/28 09:56:00;;;;;;;1.92;0.73;;;;;;;4.31;89.11;99893.28;5056339;28;20025;-71
2021/11/28 09:58:28;;;;;;;1.35;0.70;;;;;;;4.37;88.31;99917.41;5055364;28;20028;-71
2021/11/28 10:00:57;;;;;;;2.83;0.90;;;;;;;4.40;89.89;99910.22;5037907;28;20467;-71
2021/11/28 10:03:23;;;;;;;1.58;1.00;;;;;;;4.53;89.44;99918.13;5056435;28;20029;-71
2021/11/28 10:05:53;;;;;;;0.98;0.70;;;;;;;4.66;88.67;99914.19;5037510;28;20024;-70
2021/11/28 10:08:23;;;;;;;2.40;0.50;;;;;;;4.80;88.14;99921.16;5037388;28;20024;-70
2021/11/28 10:11:24;;;;;;;0.98;0.68;;;;;;;4.79;87.60;99903.41;5037328;28;20025;-71
2021/11/28 10:13:53;;;;;;;1.73;0.80;;;;;;;4.98;86.88;99910.66;5055816;28;20464;-70
2021/11/28 10:16:20;;;;;;;1.55;0.60;;;;;;;5.07;86.72;99898.59;5037087;28;20071;-71
2021/11/28 10:18:45;;;;;;;1.25;0.63;;;;;;;5.16;86.66;99907.78;5055022;28;20028;-70
2021/11/28 10:21:11;;;;;;;1.42;0.77;;;;;;;5.15;86.55;99903.63;5020711;28;20125;-71
2021/11/28 10:24:12;;;;;;;2.05;0.70;;;;;;;5.10;87.13;99904.16;5054933;28;20060;-70
2021/11/28 10:27:05;;;;;;;2.25;1.00;;;;;;;5.11;87.86;99900.59;5055132;28;20054;-71
2021/11/28 10:29:36;;;;;;;2.55;1.17;;;;;;;5.20;85.88;99897.00;5038086;28;20027;-71
2021/11/28 10:32:03;;;;;;;13.07;7.85;;;;;;;5.16;86.38;99905.22;5055554;28;20025;-71
2021/11/28 10:34:37;;;;;;;1.88;1.33;;;;;;;4.95;88.08;99900.75;5054881;28;20017;-71
2021/11/28 10:37:09;;;;;;;1.17;0.88;;;;;;;4.80;87.99;99887.09;5055229;28;20107;-70
2021/11/28 10:39:48;;;;;;;3.05;0.70;;;;;;;4.87;88.22;99904.16;5036950;28;20055;-71
2021/11/28 10:42:26;;;;;;;3.50;1.23;;;;;;;4.79;88.78;99908.53;5037668;28;20059;-71
2021/11/28 10:45:14;;;;;;;2.90;2.00;;;;;;;4.62;87.97;99900.16;5036878;28;20391;-70
2021/11/28 10:47:51;;;;;;;5.43;1.45;;;;;;;4.67;89.27;99903.00;5054631;28;20025;-70
2021/11/28 10:50:20;;;;;;;0.95;0.70;;;;;;;4.68;89.25;99915.63;5036640;28;20057;-70
2021/11/28 10:52:50;;;;;;;10.82;7.75;;;;;;;5.39;87.78;99905.19;5036561;28;20025;-69
2021/11/28 10:55:27;;;;;;;1.35;0.90;;;;;;;4.86;87.14;99906.88;5054430;28;20029;-70
2021/11/28 10:58:20;;;;;;;8.18;2.85;;;;;;;4.65;88.66;99917.72;5054516;28;20472;-70
2021/11/28 11:00:45;;;;;;;4.90;1.25;;;;;;;4.66;88.97;99916.75;5028655;28;20029;-70
2021/11/28 11:03:30;;;;;;;3.77;0.80;;;;;;;4.53;88.28;99914.78;5054883;28;20032;-69
2021/11/28 11:06:17;;;;;;;1.88;0.70;;;;;;;4.70;89.21;99925.72;5054106;28;20782;-70
2021/11/28 11:08:44;;;;;;;2.28;0.80;;;;;;;4.60;88.63;99930.22;5054209;28;20028;-73
2021/11/28 11:11:13;;;;;;;2.58;0.73;;;;;;;4.60;88.83;99933.59;5054108;28;20480;-70
2021/11/28 11:14:15;;;;;;;2.30;0.57;;;;;;;4.48;89.28;99925.50;5036229;28;20023;-70
2021/11/28 11:16:42;;;;;;;2.65;0.98;;;;;;;4.44;90.55;99937.03;4957686;28;20073;-71
2021/11/28 11:19:29;;;;;;;0.98;0.68;;;;;;;4.44;89.65;99939.59;5023090;28;20498;-72
2021/11/28 11:22:15;;;;;;;1.10;0.93;;;;;;;4.35;87.91;99939.81;5053791;28;20515;-71
2021/11/28 11:24:49;;;;;;;1.25;0.60;;;;;;;4.25;88.63;99933.13;5035792;28;20112;-70
2021/11/28 11:27:18;;;;;;;1.92;0.70;;;;;;;4.21;87.44;99939.53;5036057;28;20056;-69
2021/11/28 11:29:49;;;;;;;2.45;1.27;;;;;;;4.11;88.65;99921.03;5053863;28;20044;-72
2021/11/28 11:32:16;;;;;;;1.88;0.98;;;;;;;4.36;87.77;99934.50;5054710;28;20078;-71
2021/11/28 11:35:09;;;;;;;2.53;0.70;;;;;;;4.19;88.30;99930.44;5053997;28;20050;-70
2021/11/28 11:37:36;;;;;;;2.25;1.10;;;;;;;4.10;88.98;99919.44;5051063;28;20364;-73
2021/11/28 11:40:09;;;;;;;2.72;0.77;;;;;;;4.08;88.56;99929.03;5054674;28;20021;-72